sensor_id;sensor_type;location;lat;lon;timestamp;temperature;humidity
45549;DHT22;31270;48.328;10.096;2024-02-14T00:02:23;2.30;99.90
45549;DHT22;31270;48.328;10.096;2024-02-14T00:04:54;2.20;99.90
45549;DHT22;31270;48.328;10.096;2024-02-14T00:07:20;2.20;99.90
45549;DHT22;31270;48.328;10.096;2024-02-14T00:09:47;2.20;99.90
45549;DHT22;31270;48.328;10.096;2024-02-14T00:12:12;2.10;99.90
45549;DHT22;31270;48.328;10.096;2024-02-14T00:14:38;2.00;99.90
45549;DHT22;31270;48.328;10.096;2024-02-14T00:17:04;2.00;99.90
45549;DHT22;31270;48.328;10.096;2024-02-14T00:19:31;2.00;99.90
45549;DHT22;31270;48.328;10.096;2024-02-14T00:21:57;2.10;99.90
45549;DHT22;31270;48.328;10.096;2024-02-14T00:24:22;2.00;99.90
45549;DHT22;31270;48.328;10.096;2024-02-14T00:26:50;2.00;99.90
45549;DHT22;31270;48.328;10.096;2024-02-14T00:29:15;2.00;99.90
45549;DHT22;31270;48.328;10.096;2024-02-14T00:31:41;2.00;99.90
45549;DHT22;31270;48.328;10.096;2024-02-14T00:34:08;2.00;99.90
45549;DHT22;31270;48.328;10.096;2024-02-14T00:36:34;2.00;99.90
45549;DHT22;31270;48.328;10.096;2024-02-14T00:38:59;2.00;99.90
45549;DHT22;31270;48.328;10.096;2024-02-14T00:41:25;2.00;99.90
45549;DHT22;31270;48.328;10.096;2024-02-14T00:43:57;2.00;99.90
45549;DHT22;31270;48.328;10.096;2024-02-14T00:46:23;2.00;99.90
45549;DHT22;31270;48.328;10.096;2024-02-14T00:48:49;2.00;99.90
45549;DHT22;31270;48.328;10.096;2024-02-14T00:51:14;2.00;99.90
45549;DHT22;31270;48.328;10.096;2024-02-14T00:53:40;2.00;99.90
45549;DHT22;31270;48.328;10.096;2024-02-14T00:56:06;2.00;99.90
45549;DHT22;31270;48.328;10.096;2024-02-14T00:58:31;2.00;99.90
45549;DHT22;31270;48.328;10.096;2024-02-14T01:00:57;2.00;99.90
45549;DHT22;31270;48.328;10.096;2024-02-14T01:03:23;2.00;99.90
45549;DHT22;31270;48.328;10.096;2024-02-14T01:05:49;2.00;99.90
45549;DHT22;31270;48.328;10.096;2024-02-14T01:08:15;2.00;99.90
45549;DHT22;31270;48.328;10.096;2024-02-14T01:10:41;2.00;99.90
45549;DHT22;31270;48.328;10.096;2024-02-14T01:13:06;2.00;99.90
45549;DHT22;31270;48.328;10.096;2024-02-14T01:15:32;2.00;99.90
45549;DHT22;31270;48.328;10.096;2024-02-14T01:17:59;2.00;99.90
45549;DHT22;31270;48.328;10.096;2024-02-14T01:20:24;1.90;99.90
45549;DHT22;31270;48.328;10.096;2024-02-14T01:22:50;1.90;99.90
45549;DHT22;31270;48.328;10.096;2024-02-14T01:25:15;1.90;99.90
45549;DHT22;31270;48.328;10.096;2024-02-14T01:27:41;1.90;99.90
45549;DHT22;31270;48.328;10.096;2024-02-14T01:30:08;1.90;99.90
45549;DHT22;31270;48.328;10.096;2024-02-14T01:32:34;1.80;99.90
45549;DHT22;31270;48.328;10.096;2024-02-14T01:35:00;1.80;99.90
45549;DHT22;31270;48.328;10.096;2024-02-14T01:37:26;1.80;99.90
45549;DHT22;31270;48.328;10.096;2024-02-14T01:39:52;1.80;99.90
45549;DHT22;31270;48.328;10.096;2024-02-14T01:42:18;1.70;99.90
45549;DHT22;31270;48.328;10.096;2024-02-14T01:44:43;1.70;99.90
45549;DHT22;31270;48.328;10.096;2024-02-14T01:47:10;1.70;99.90
45549;DHT22;31270;48.328;10.096;2024-02-14T01:49:36;1.70;99.90
45549;DHT22;31270;48.328;10.096;2024-02-14T01:52:03;1.70;99.90
45549;DHT22;31270;48.328;10.096;2024-02-14T01:54:29;1.70;99.90
45549;DHT22;31270;48.328;10.096;2024-02-14T01:56:56;1.60;99.90
45549;DHT22;31270;48.328;10.096;2024-02-14T01:59:23;1.70;99.90
45549;DHT22;31270;48.328;10.096;2024-02-14T02:01:50;1.70;99.90
45549;DHT22;31270;48.328;10.096;2024-02-14T02:04:18;1.70;99.90
45549;DHT22;31270;48.328;10.096;2024-02-14T02:06:44;1.70;99.90
45549;DHT22;31270;48.328;10.096;2024-02-14T02:09:10;1.80;99.90
45549;DHT22;31270;48.328;10.096;2024-02-14T02:11:46;1.80;99.90
45549;DHT22;31270;48.328;10.096;2024-02-14T02:14:14;1.80;99.90
45549;DHT22;31270;48.328;10.096;2024-02-14T02:16:39;1.80;99.90
45549;DHT22;31270;48.328;10.096;2024-02-14T02:19:05;1.80;99.90
45549;DHT22;31270;48.328;10.096;2024-02-14T02:21:34;1.90;99.90
45549;DHT22;31270;48.328;10.096;2024-02-14T02:24:00;1.90;99.90
45549;DHT22;31270;48.328;10.096;2024-02-14T02:26:26;1.90;99.90
45549;DHT22;31270;48.328;10.096;2024-02-14T02:28:51;2.00;99.90
45549;DHT22;31270;48.328;10.096;2024-02-14T02:31:18;2.00;99.90
45549;DHT22;31270;48.328;10.096;2024-02-14T02:33:43;2.00;99.90
45549;DHT22;31270;48.328;10.096;2024-02-14T02:36:09;2.10;99.90
45549;DHT22;31270;48.328;10.096;2024-02-14T02:38:35;2.20;99.90
45549;DHT22;31270;48.328;10.096;2024-02-14T02:41:02;2.20;99.90
45549;DHT22;31270;48.328;10.096;2024-02-14T02:43:29;2.30;99.90
45549;DHT22;31270;48.328;10.096;2024-02-14T02:45:55;2.30;99.90
45549;DHT22;31270;48.328;10.096;2024-02-14T02:48:22;2.20;99.90
45549;DHT22;31270;48.328;10.096;2024-02-14T02:50:49;2.30;99.90
45549;DHT22;31270;48.328;10.096;2024-02-14T02:53:15;2.30;99.90
45549;DHT22;31270;48.328;10.096;2024-02-14T02:55:41;2.30;99.90
45549;DHT22;31270;48.328;10.096;2024-02-14T02:58:07;2.40;99.90
45549;DHT22;31270;48.328;10.096;2024-02-14T03:00:33;2.40;99.90
45549;DHT22;31270;48.328;10.096;2024-02-14T03:02:59;2.40;99.90
45549;DHT22;31270;48.328;10.096;2024-02-14T03:05:25;2.50;99.90
45549;DHT22;31270;48.328;10.096;2024-02-14T03:07:51;2.50;99.90
45549;DHT22;31270;48.328;10.096;2024-02-14T03:10:18;2.50;99.90
45549;DHT22;31270;48.328;10.096;2024-02-14T03:12:49;2.60;99.90
45549;DHT22;31270;48.328;10.096;2024-02-14T03:15:16;2.70;99.90
45549;DHT22;31270;48.328;10.096;2024-02-14T03:17:42;2.70;99.90
45549;DHT22;31270;48.328;10.096;2024-02-14T03:20:08;2.70;99.90
45549;DHT22;31270;48.328;10.096;2024-02-14T03:22:41;2.70;99.90
45549;DHT22;31270;48.328;10.096;2024-02-14T03:25:15;2.80;99.90
45549;DHT22;31270;48.328;10.096;2024-02-14T03:27:42;2.80;99.90
45549;DHT22;31270;48.328;10.096;2024-02-14T03:30:08;2.80;99.90
45549;DHT22;31270;48.328;10.096;2024-02-14T03:32:34;2.90;99.90
45549;DHT22;31270;48.328;10.096;2024-02-14T03:35:00;2.90;99.90
45549;DHT22;31270;48.328;10.096;2024-02-14T03:37:26;3.00;99.90
45549;DHT22;31270;48.328;10.096;2024-02-14T03:39:52;2.90;99.90
45549;DHT22;31270;48.328;10.096;2024-02-14T03:42:18;3.00;99.90
45549;DHT22;31270;48.328;10.096;2024-02-14T03:44:45;3.00;99.90
45549;DHT22;31270;48.328;10.096;2024-02-14T03:47:11;3.10;99.90
45549;DHT22;31270;48.328;10.096;2024-02-14T03:49:38;3.10;99.90
45549;DHT22;31270;48.328;10.096;2024-02-14T03:52:06;3.10;99.90
45549;DHT22;31270;48.328;10.096;2024-02-14T03:54:36;3.10;99.90
45549;DHT22;31270;48.328;10.096;2024-02-14T03:57:02;3.10;99.90
45549;DHT22;31270;48.328;10.096;2024-02-14T03:59:28;3.10;99.90
45549;DHT22;31270;48.328;10.096;2024-02-14T04:01:53;3.10;99.90
45549;DHT22;31270;48.328;10.096;2024-02-14T04:04:19;3.10;99.90
45549;DHT22;31270;48.328;10.096;2024-02-14T04:06:45;3.10;99.90
45549;DHT22;31270;48.328;10.096;2024-02-14T04:09:11;3.20;99.90
45549;DHT22;31270;48.328;10.096;2024-02-14T04:11:36;3.10;99.90
45549;DHT22;31270;48.328;10.096;2024-02-14T04:14:02;3.10;99.90
45549;DHT22;31270;48.328;10.096;2024-02-14T04:16:28;3.10;99.90
45549;DHT22;31270;48.328;10.096;2024-02-14T04:18:54;3.20;99.90
45549;DHT22;31270;48.328;10.096;2024-02-14T04:21:21;3.20;99.90
45549;DHT22;31270;48.328;10.096;2024-02-14T04:23:47;3.20;99.90
45549;DHT22;31270;48.328;10.096;2024-02-14T04:26:20;3.20;99.90
45549;DHT22;31270;48.328;10.096;2024-02-14T04:28:46;3.20;99.90
45549;DHT22;31270;48.328;10.096;2024-02-14T04:31:11;3.20;99.90
45549;DHT22;31270;48.328;10.096;2024-02-14T04:33:37;3.10;99.90
45549;DHT22;31270;48.328;10.096;2024-02-14T04:36:02;3.10;99.90
45549;DHT22;31270;48.328;10.096;2024-02-14T04:38:29;3.10;99.90
45549;DHT22;31270;48.328;10.096;2024-02-14T04:40:55;3.10;99.90
45549;DHT22;31270;48.328;10.096;2024-02-14T04:43:22;3.10;99.90
45549;DHT22;31270;48.328;10.096;2024-02-14T04:45:47;3.10;99.90
45549;DHT22;31270;48.328;10.096;2024-02-14T04:48:13;3.10;99.90
45549;DHT22;31270;48.328;10.096;2024-02-14T04:50:39;3.10;99.90
45549;DHT22;31270;48.328;10.096;2024-02-14T04:53:05;3.10;99.90
45549;DHT22;31270;48.328;10.096;2024-02-14T04:55:30;3.10;99.90
45549;DHT22;31270;48.328;10.096;2024-02-14T04:57:56;3.20;99.90
45549;DHT22;31270;48.328;10.096;2024-02-14T05:00:21;3.20;99.90
45549;DHT22;31270;48.328;10.096;2024-02-14T05:02:47;3.30;99.90
45549;DHT22;31270;48.328;10.096;2024-02-14T05:05:13;3.30;99.90
45549;DHT22;31270;48.328;10.096;2024-02-14T05:07:38;3.30;99.90
45549;DHT22;31270;48.328;10.096;2024-02-14T05:10:04;3.30;99.90
45549;DHT22;31270;48.328;10.096;2024-02-14T05:12:30;3.40;99.90
45549;DHT22;31270;48.328;10.096;2024-02-14T05:14:55;3.40;99.90
45549;DHT22;31270;48.328;10.096;2024-02-14T05:17:21;3.40;99.90
45549;DHT22;31270;48.328;10.096;2024-02-14T05:19:47;3.40;99.90
45549;DHT22;31270;48.328;10.096;2024-02-14T05:22:12;3.40;99.90
45549;DHT22;31270;48.328;10.096;2024-02-14T05:24:38;3.40;99.90
45549;DHT22;31270;48.328;10.096;2024-02-14T05:27:04;3.40;99.90
45549;DHT22;31270;48.328;10.096;2024-02-14T05:29:30;3.40;99.90
45549;DHT22;31270;48.328;10.096;2024-02-14T05:31:56;3.50;99.90
45549;DHT22;31270;48.328;10.096;2024-02-14T05:34:22;3.50;99.90
45549;DHT22;31270;48.328;10.096;2024-02-14T05:36:48;3.60;99.90
45549;DHT22;31270;48.328;10.096;2024-02-14T05:39:14;3.60;99.90
45549;DHT22;31270;48.328;10.096;2024-02-14T05:41:41;3.60;99.90
45549;DHT22;31270;48.328;10.096;2024-02-14T05:44:06;3.70;99.90
45549;DHT22;31270;48.328;10.096;2024-02-14T05:46:32;3.70;99.90
45549;DHT22;31270;48.328;10.096;2024-02-14T05:48:58;3.70;99.90
45549;DHT22;31270;48.328;10.096;2024-02-14T05:51:24;3.70;99.90
45549;DHT22;31270;48.328;10.096;2024-02-14T05:53:49;3.70;99.90
45549;DHT22;31270;48.328;10.096;2024-02-14T05:56:15;3.70;99.90
45549;DHT22;31270;48.328;10.096;2024-02-14T05:58:41;3.80;99.90
45549;DHT22;31270;48.328;10.096;2024-02-14T06:01:06;3.80;99.90
45549;DHT22;31270;48.328;10.096;2024-02-14T06:03:32;3.80;99.90
45549;DHT22;31270;48.328;10.096;2024-02-14T06:05:58;3.80;99.90
45549;DHT22;31270;48.328;10.096;2024-02-14T06:08:23;3.80;99.90
45549;DHT22;31270;48.328;10.096;2024-02-14T06:10:49;3.80;99.90
45549;DHT22;31270;48.328;10.096;2024-02-14T06:13:15;3.80;99.90
45549;DHT22;31270;48.328;10.096;2024-02-14T06:15:41;3.80;99.90
45549;DHT22;31270;48.328;10.096;2024-02-14T06:18:06;3.80;99.90
45549;DHT22;31270;48.328;10.096;2024-02-14T06:20:32;3.80;99.90
45549;DHT22;31270;48.328;10.096;2024-02-14T06:22:58;3.90;99.90
45549;DHT22;31270;48.328;10.096;2024-02-14T06:25:23;3.90;99.90
45549;DHT22;31270;48.328;10.096;2024-02-14T06:27:49;3.90;99.90
45549;DHT22;31270;48.328;10.096;2024-02-14T06:30:15;3.90;99.90
45549;DHT22;31270;48.328;10.096;2024-02-14T06:32:42;3.90;99.90
45549;DHT22;31270;48.328;10.096;2024-02-14T06:35:08;3.90;99.90
45549;DHT22;31270;48.328;10.096;2024-02-14T06:37:33;4.00;99.90
45549;DHT22;31270;48.328;10.096;2024-02-14T06:39:59;4.00;99.90
45549;DHT22;31270;48.328;10.096;2024-02-14T06:42:24;3.90;99.90
45549;DHT22;31270;48.328;10.096;2024-02-14T06:44:50;4.00;99.90
45549;DHT22;31270;48.328;10.096;2024-02-14T06:47:16;4.00;99.90
45549;DHT22;31270;48.328;10.096;2024-02-14T06:49:41;4.00;99.90
45549;DHT22;31270;48.328;10.096;2024-02-14T06:52:07;4.10;99.90
45549;DHT22;31270;48.328;10.096;2024-02-14T06:54:32;4.10;99.90
45549;DHT22;31270;48.328;10.096;2024-02-14T06:56:58;4.10;99.90
45549;DHT22;31270;48.328;10.096;2024-02-14T06:59:25;4.20;99.90
45549;DHT22;31270;48.328;10.096;2024-02-14T07:01:51;4.20;99.90
45549;DHT22;31270;48.328;10.096;2024-02-14T07:04:23;4.20;99.90
45549;DHT22;31270;48.328;10.096;2024-02-14T07:06:52;4.30;99.90
45549;DHT22;31270;48.328;10.096;2024-02-14T07:09:18;4.30;99.90
45549;DHT22;31270;48.328;10.096;2024-02-14T07:11:43;4.40;99.90
45549;DHT22;31270;48.328;10.096;2024-02-14T07:14:11;4.40;99.90
45549;DHT22;31270;48.328;10.096;2024-02-14T07:16:38;4.40;99.90
45549;DHT22;31270;48.328;10.096;2024-02-14T07:19:03;4.50;99.90
45549;DHT22;31270;48.328;10.096;2024-02-14T07:21:29;4.60;99.90
45549;DHT22;31270;48.328;10.096;2024-02-14T07:23:54;4.60;99.90
45549;DHT22;31270;48.328;10.096;2024-02-14T07:26:20;4.60;99.90
45549;DHT22;31270;48.328;10.096;2024-02-14T07:28:46;4.60;99.90
45549;DHT22;31270;48.328;10.096;2024-02-14T07:31:11;4.70;99.90
45549;DHT22;31270;48.328;10.096;2024-02-14T07:33:37;4.70;99.90
45549;DHT22;31270;48.328;10.096;2024-02-14T07:36:03;4.80;99.90
45549;DHT22;31270;48.328;10.096;2024-02-14T07:38:28;4.80;99.90
45549;DHT22;31270;48.328;10.096;2024-02-14T07:40:55;4.90;99.90
45549;DHT22;31270;48.328;10.096;2024-02-14T07:43:21;4.90;99.90
45549;DHT22;31270;48.328;10.096;2024-02-14T07:45:47;4.90;99.90
45549;DHT22;31270;48.328;10.096;2024-02-14T07:48:13;4.90;99.90
45549;DHT22;31270;48.328;10.096;2024-02-14T07:50:39;5.00;99.90
45549;DHT22;31270;48.328;10.096;2024-02-14T07:53:04;5.00;99.90
45549;DHT22;31270;48.328;10.096;2024-02-14T07:55:31;5.10;99.90
45549;DHT22;31270;48.328;10.096;2024-02-14T07:57:57;5.10;99.90
45549;DHT22;31270;48.328;10.096;2024-02-14T08:00:25;5.10;99.90
45549;DHT22;31270;48.328;10.096;2024-02-14T08:02:50;5.20;99.90
45549;DHT22;31270;48.328;10.096;2024-02-14T08:05:16;5.30;99.90
45549;DHT22;31270;48.328;10.096;2024-02-14T08:07:42;5.30;99.90
45549;DHT22;31270;48.328;10.096;2024-02-14T08:10:08;5.30;99.90
45549;DHT22;31270;48.328;10.096;2024-02-14T08:12:34;5.40;99.90
45549;DHT22;31270;48.328;10.096;2024-02-14T08:14:59;5.50;99.90
45549;DHT22;31270;48.328;10.096;2024-02-14T08:17:30;5.60;99.90
45549;DHT22;31270;48.328;10.096;2024-02-14T08:19:55;5.70;99.90
45549;DHT22;31270;48.328;10.096;2024-02-14T08:22:21;5.70;99.90
45549;DHT22;31270;48.328;10.096;2024-02-14T08:24:46;5.90;99.90
45549;DHT22;31270;48.328;10.096;2024-02-14T08:27:12;6.00;99.90
45549;DHT22;31270;48.328;10.096;2024-02-14T08:29:37;6.00;99.90
45549;DHT22;31270;48.328;10.096;2024-02-14T08:32:05;6.20;99.90
45549;DHT22;31270;48.328;10.096;2024-02-14T08:34:30;6.30;99.90
45549;DHT22;31270;48.328;10.096;2024-02-14T08:36:56;6.40;99.90
45549;DHT22;31270;48.328;10.096;2024-02-14T08:39:22;6.40;99.90
45549;DHT22;31270;48.328;10.096;2024-02-14T08:41:47;6.50;99.90
45549;DHT22;31270;48.328;10.096;2024-02-14T08:44:13;6.60;99.90
45549;DHT22;31270;48.328;10.096;2024-02-14T08:46:39;6.70;99.90
45549;DHT22;31270;48.328;10.096;2024-02-14T08:49:07;6.80;99.90
45549;DHT22;31270;48.328;10.096;2024-02-14T08:51:35;6.80;99.90
45549;DHT22;31270;48.328;10.096;2024-02-14T08:54:02;7.00;99.90
45549;DHT22;31270;48.328;10.096;2024-02-14T08:56:32;7.00;99.90
45549;DHT22;31270;48.328;10.096;2024-02-14T08:59:02;7.10;99.90
45549;DHT22;31270;48.328;10.096;2024-02-14T09:01:29;7.20;99.90
45549;DHT22;31270;48.328;10.096;2024-02-14T09:03:56;7.20;99.90
45549;DHT22;31270;48.328;10.096;2024-02-14T09:06:22;7.30;99.90
45549;DHT22;31270;48.328;10.096;2024-02-14T09:08:48;7.30;99.90
45549;DHT22;31270;48.328;10.096;2024-02-14T09:11:15;7.40;99.90
45549;DHT22;31270;48.328;10.096;2024-02-14T09:13:41;7.40;99.90
45549;DHT22;31270;48.328;10.096;2024-02-14T09:16:08;7.50;99.90
45549;DHT22;31270;48.328;10.096;2024-02-14T09:18:34;7.50;99.90
45549;DHT22;31270;48.328;10.096;2024-02-14T09:21:05;7.60;99.90
45549;DHT22;31270;48.328;10.096;2024-02-14T09:23:31;7.60;99.90
45549;DHT22;31270;48.328;10.096;2024-02-14T09:25:58;7.70;99.90
45549;DHT22;31270;48.328;10.096;2024-02-14T09:28:23;7.80;99.90
45549;DHT22;31270;48.328;10.096;2024-02-14T09:30:51;7.80;99.90
45549;DHT22;31270;48.328;10.096;2024-02-14T09:33:16;7.80;99.90
45549;DHT22;31270;48.328;10.096;2024-02-14T09:35:42;7.80;99.90
45549;DHT22;31270;48.328;10.096;2024-02-14T09:38:11;7.90;99.90
45549;DHT22;31270;48.328;10.096;2024-02-14T09:40:42;7.90;99.90
45549;DHT22;31270;48.328;10.096;2024-02-14T09:43:27;8.00;99.90
45549;DHT22;31270;48.328;10.096;2024-02-14T09:45:53;8.20;99.90
45549;DHT22;31270;48.328;10.096;2024-02-14T09:48:20;8.30;99.90
45549;DHT22;31270;48.328;10.096;2024-02-14T09:50:48;8.40;99.90
45549;DHT22;31270;48.328;10.096;2024-02-14T09:53:14;8.50;99.90
45549;DHT22;31270;48.328;10.096;2024-02-14T09:55:42;8.50;99.90
45549;DHT22;31270;48.328;10.096;2024-02-14T09:58:07;8.50;99.90
45549;DHT22;31270;48.328;10.096;2024-02-14T10:00:34;8.50;99.90
45549;DHT22;31270;48.328;10.096;2024-02-14T10:03:00;8.60;99.90
45549;DHT22;31270;48.328;10.096;2024-02-14T10:05:26;8.70;99.90
45549;DHT22;31270;48.328;10.096;2024-02-14T10:07:56;8.80;99.90
45549;DHT22;31270;48.328;10.096;2024-02-14T10:10:22;8.90;99.90
45549;DHT22;31270;48.328;10.096;2024-02-14T10:12:47;9.00;99.90
45549;DHT22;31270;48.328;10.096;2024-02-14T10:15:13;9.20;99.90
45549;DHT22;31270;48.328;10.096;2024-02-14T10:17:39;9.30;99.90
45549;DHT22;31270;48.328;10.096;2024-02-14T10:20:07;9.50;99.90
45549;DHT22;31270;48.328;10.096;2024-02-14T10:22:36;9.70;99.90
45549;DHT22;31270;48.328;10.096;2024-02-14T10:25:05;9.80;99.90
45549;DHT22;31270;48.328;10.096;2024-02-14T10:27:38;9.90;99.90
45549;DHT22;31270;48.328;10.096;2024-02-14T10:30:08;10.00;99.90
45549;DHT22;31270;48.328;10.096;2024-02-14T10:32:35;10.10;99.90
45549;DHT22;31270;48.328;10.096;2024-02-14T10:35:04;10.20;99.90
45549;DHT22;31270;48.328;10.096;2024-02-14T10:37:31;10.20;99.90
45549;DHT22;31270;48.328;10.096;2024-02-14T10:39:58;10.20;99.90
45549;DHT22;31270;48.328;10.096;2024-02-14T10:42:27;10.30;99.90
45549;DHT22;31270;48.328;10.096;2024-02-14T10:44:54;10.30;99.90
45549;DHT22;31270;48.328;10.096;2024-02-14T10:47:25;10.40;99.90
45549;DHT22;31270;48.328;10.096;2024-02-14T10:49:59;10.30;99.90
45549;DHT22;31270;48.328;10.096;2024-02-14T10:52:30;10.30;99.90
45549;DHT22;31270;48.328;10.096;2024-02-14T10:54:59;10.30;99.90
45549;DHT22;31270;48.328;10.096;2024-02-14T10:57:27;10.30;99.90
45549;DHT22;31270;48.328;10.096;2024-02-14T10:59:54;10.20;99.90
45549;DHT22;31270;48.328;10.096;2024-02-14T11:02:21;10.10;99.90
45549;DHT22;31270;48.328;10.096;2024-02-14T11:04:48;10.10;99.90
45549;DHT22;31270;48.328;10.096;2024-02-14T11:07:17;10.00;99.90
45549;DHT22;31270;48.328;10.096;2024-02-14T11:09:42;10.00;99.90
45549;DHT22;31270;48.328;10.096;2024-02-14T11:12:09;10.10;99.90
45549;DHT22;31270;48.328;10.096;2024-02-14T11:14:36;10.40;99.90
45549;DHT22;31270;48.328;10.096;2024-02-14T11:17:02;10.50;99.90
45549;DHT22;31270;48.328;10.096;2024-02-14T11:19:32;10.50;99.90
45549;DHT22;31270;48.328;10.096;2024-02-14T11:22:21;10.60;99.90
45549;DHT22;31270;48.328;10.096;2024-02-14T11:24:47;10.80;99.90
45549;DHT22;31270;48.328;10.096;2024-02-14T11:27:13;10.60;99.90
45549;DHT22;31270;48.328;10.096;2024-02-14T11:29:40;10.70;99.90
45549;DHT22;31270;48.328;10.096;2024-02-14T11:32:11;10.70;99.90
45549;DHT22;31270;48.328;10.096;2024-02-14T11:34:37;10.80;99.90
45549;DHT22;31270;48.328;10.096;2024-02-14T11:37:03;10.90;99.90
45549;DHT22;31270;48.328;10.096;2024-02-14T11:39:33;11.00;99.90
45549;DHT22;31270;48.328;10.096;2024-02-14T11:42:00;11.10;99.90
45549;DHT22;31270;48.328;10.096;2024-02-14T11:44:26;11.00;99.90
45549;DHT22;31270;48.328;10.096;2024-02-14T11:46:51;11.10;99.90
45549;DHT22;31270;48.328;10.096;2024-02-14T11:49:18;11.10;99.90
45549;DHT22;31270;48.328;10.096;2024-02-14T11:51:44;11.10;99.90
45549;DHT22;31270;48.328;10.096;2024-02-14T11:54:09;11.20;99.90
45549;DHT22;31270;48.328;10.096;2024-02-14T11:56:38;11.30;99.90
45549;DHT22;31270;48.328;10.096;2024-02-14T11:59:05;11.40;99.90
45549;DHT22;31270;48.328;10.096;2024-02-14T12:01:32;11.50;99.90
45549;DHT22;31270;48.328;10.096;2024-02-14T12:03:59;11.60;99.90
45549;DHT22;31270;48.328;10.096;2024-02-14T12:06:29;11.60;99.90
45549;DHT22;31270;48.328;10.096;2024-02-14T12:09:03;11.70;99.90
45549;DHT22;31270;48.328;10.096;2024-02-14T12:11:38;11.80;99.90
45549;DHT22;31270;48.328;10.096;2024-02-14T12:14:08;12.00;99.90
45549;DHT22;31270;48.328;10.096;2024-02-14T12:16:35;12.10;99.90
45549;DHT22;31270;48.328;10.096;2024-02-14T12:19:08;12.20;99.90
45549;DHT22;31270;48.328;10.096;2024-02-14T12:21:39;12.10;99.90
45549;DHT22;31270;48.328;10.096;2024-02-14T12:24:08;12.20;99.90
45549;DHT22;31270;48.328;10.096;2024-02-14T12:26:35;12.10;99.90
45549;DHT22;31270;48.328;10.096;2024-02-14T12:29:05;12.20;99.90
45549;DHT22;31270;48.328;10.096;2024-02-14T12:31:34;12.40;99.90
45549;DHT22;31270;48.328;10.096;2024-02-14T12:34:03;12.50;99.90
45549;DHT22;31270;48.328;10.096;2024-02-14T12:36:31;12.60;99.90
45549;DHT22;31270;48.328;10.096;2024-02-14T12:38:58;12.70;99.90
45549;DHT22;31270;48.328;10.096;2024-02-14T12:41:24;12.70;99.90
45549;DHT22;31270;48.328;10.096;2024-02-14T12:43:52;12.80;99.90
45549;DHT22;31270;48.328;10.096;2024-02-14T12:46:19;13.00;99.90
45549;DHT22;31270;48.328;10.096;2024-02-14T12:48:44;13.10;99.90
45549;DHT22;31270;48.328;10.096;2024-02-14T12:51:10;13.00;99.90
45549;DHT22;31270;48.328;10.096;2024-02-14T12:53:36;12.90;99.90
45549;DHT22;31270;48.328;10.096;2024-02-14T12:56:02;12.70;99.90
45549;DHT22;31270;48.328;10.096;2024-02-14T12:58:31;12.80;99.90
45549;DHT22;31270;48.328;10.096;2024-02-14T13:00:57;12.90;99.90
45549;DHT22;31270;48.328;10.096;2024-02-14T13:03:24;13.10;99.90
45549;DHT22;31270;48.328;10.096;2024-02-14T13:05:50;13.30;99.90
45549;DHT22;31270;48.328;10.096;2024-02-14T13:08:16;13.40;99.90
45549;DHT22;31270;48.328;10.096;2024-02-14T13:10:43;13.60;99.90
45549;DHT22;31270;48.328;10.096;2024-02-14T13:13:08;13.70;99.90
45549;DHT22;31270;48.328;10.096;2024-02-14T13:15:34;13.70;99.90
45549;DHT22;31270;48.328;10.096;2024-02-14T13:18:00;13.80;99.90
45549;DHT22;31270;48.328;10.096;2024-02-14T13:20:25;13.80;99.90
45549;DHT22;31270;48.328;10.096;2024-02-14T13:22:51;13.80;99.90
45549;DHT22;31270;48.328;10.096;2024-02-14T13:25:17;13.90;99.90
45549;DHT22;31270;48.328;10.096;2024-02-14T13:27:44;13.90;99.90
45549;DHT22;31270;48.328;10.096;2024-02-14T13:30:10;13.80;99.90
45549;DHT22;31270;48.328;10.096;2024-02-14T13:32:35;13.80;99.90
45549;DHT22;31270;48.328;10.096;2024-02-14T13:35:01;13.60;99.90
45549;DHT22;31270;48.328;10.096;2024-02-14T13:37:28;13.60;99.90
45549;DHT22;31270;48.328;10.096;2024-02-14T13:39:54;13.60;99.90
45549;DHT22;31270;48.328;10.096;2024-02-14T13:42:20;13.50;99.90
45549;DHT22;31270;48.328;10.096;2024-02-14T13:44:49;13.50;99.90
45549;DHT22;31270;48.328;10.096;2024-02-14T13:47:18;13.50;99.90
45549;DHT22;31270;48.328;10.096;2024-02-14T13:49:47;13.50;99.90
45549;DHT22;31270;48.328;10.096;2024-02-14T13:52:12;13.50;99.90
45549;DHT22;31270;48.328;10.096;2024-02-14T13:54:38;13.30;99.90
45549;DHT22;31270;48.328;10.096;2024-02-14T13:57:04;13.30;99.90
45549;DHT22;31270;48.328;10.096;2024-02-14T13:59:29;13.20;99.90
45549;DHT22;31270;48.328;10.096;2024-02-14T14:01:55;13.30;99.90
45549;DHT22;31270;48.328;10.096;2024-02-14T14:04:21;13.20;99.90
45549;DHT22;31270;48.328;10.096;2024-02-14T14:06:47;13.20;99.90
45549;DHT22;31270;48.328;10.096;2024-02-14T14:09:14;13.20;99.90
45549;DHT22;31270;48.328;10.096;2024-02-14T14:11:40;13.20;99.90
45549;DHT22;31270;48.328;10.096;2024-02-14T14:14:06;13.50;99.90
45549;DHT22;31270;48.328;10.096;2024-02-14T14:16:31;13.30;99.90
45549;DHT22;31270;48.328;10.096;2024-02-14T14:19:00;13.30;99.90
45549;DHT22;31270;48.328;10.096;2024-02-14T14:21:26;13.20;99.90
45549;DHT22;31270;48.328;10.096;2024-02-14T14:23:52;13.10;99.90
45549;DHT22;31270;48.328;10.096;2024-02-14T14:26:18;13.10;99.90
45549;DHT22;31270;48.328;10.096;2024-02-14T14:28:44;13.20;99.90
45549;DHT22;31270;48.328;10.096;2024-02-14T14:31:09;13.20;99.90
45549;DHT22;31270;48.328;10.096;2024-02-14T14:33:38;13.20;99.90
45549;DHT22;31270;48.328;10.096;2024-02-14T14:36:04;13.20;99.90
45549;DHT22;31270;48.328;10.096;2024-02-14T14:38:30;13.20;99.90
45549;DHT22;31270;48.328;10.096;2024-02-14T14:40:56;13.00;99.90
45549;DHT22;31270;48.328;10.096;2024-02-14T14:43:22;13.00;99.90
45549;DHT22;31270;48.328;10.096;2024-02-14T14:45:48;13.00;99.90
45549;DHT22;31270;48.328;10.096;2024-02-14T14:48:15;13.00;99.90
45549;DHT22;31270;48.328;10.096;2024-02-14T14:50:41;12.90;99.90
45549;DHT22;31270;48.328;10.096;2024-02-14T14:53:07;12.90;99.90
45549;DHT22;31270;48.328;10.096;2024-02-14T14:55:54;12.90;99.90
45549;DHT22;31270;48.328;10.096;2024-02-14T14:58:23;12.90;99.90
45549;DHT22;31270;48.328;10.096;2024-02-14T15:00:54;12.80;99.90
45549;DHT22;31270;48.328;10.096;2024-02-14T15:03:24;12.70;99.90
45549;DHT22;31270;48.328;10.096;2024-02-14T15:05:49;12.70;99.90
45549;DHT22;31270;48.328;10.096;2024-02-14T15:08:15;12.70;99.90
45549;DHT22;31270;48.328;10.096;2024-02-14T15:10:44;12.80;99.90
45549;DHT22;31270;48.328;10.096;2024-02-14T15:13:09;12.70;99.90
45549;DHT22;31270;48.328;10.096;2024-02-14T15:15:35;12.70;99.90
45549;DHT22;31270;48.328;10.096;2024-02-14T15:18:02;12.60;99.90
45549;DHT22;31270;48.328;10.096;2024-02-14T15:20:27;12.60;99.90
45549;DHT22;31270;48.328;10.096;2024-02-14T15:22:53;12.60;99.90